createdAt,value
2023-04-30T00:00:47.582Z,10.07
2023-04-30T00:03:14.812Z,6.38
2023-04-30T00:05:41.926Z,6.95
2023-04-30T00:08:09.161Z,7.28
2023-04-30T00:10:36.313Z,5.75
2023-04-30T00:13:03.406Z,6.50
2023-04-30T00:15:31.199Z,7.40
2023-04-30T00:17:58.330Z,5.90
2023-04-30T00:20:25.578Z,5.60
2023-04-30T00:22:52.962Z,4.82
2023-04-30T00:25:21.162Z,5.78
2023-04-30T00:27:48.282Z,8.18
2023-04-30T00:30:15.647Z,5.68
2023-04-30T00:32:42.850Z,5.03
2023-04-30T00:35:10.271Z,5.78
2023-04-30T00:37:37.414Z,6.65
2023-04-30T00:40:04.854Z,7.13
2023-04-30T00:42:31.969Z,4.38
2023-04-30T00:44:59.077Z,5.43
2023-04-30T00:47:26.278Z,6.88
2023-04-30T00:49:53.729Z,6.45
2023-04-30T00:52:21.056Z,6.22
2023-04-30T00:54:48.383Z,6.78
2023-04-30T00:57:16.338Z,4.80
2023-04-30T00:59:43.455Z,5.43
2023-04-30T01:02:10.664Z,6.07
2023-04-30T01:04:37.862Z,6.78
2023-04-30T01:07:05.531Z,5.63
2023-04-30T01:09:32.662Z,7.90
2023-04-30T01:12:21.408Z,5.50
2023-04-30T01:15:02.249Z,6.43
2023-04-30T01:17:34.870Z,6.43
2023-04-30T01:20:02.772Z,6.15
2023-04-30T01:22:29.856Z,6.20
2023-04-30T01:25:24.706Z,6.75
2023-04-30T01:28:07.108Z,5.20
2023-04-30T01:30:35.063Z,4.93
2023-04-30T01:33:02.762Z,5.40
2023-04-30T01:35:45.288Z,6.10
2023-04-30T01:38:21.162Z,5.45
2023-04-30T01:40:48.294Z,4.80
2023-04-30T01:43:18.161Z,4.63
2023-04-30T01:45:54.327Z,4.25
2023-04-30T01:48:32.886Z,3.85
2023-04-30T01:51:08.928Z,4.65
2023-04-30T01:53:43.354Z,6.50
2023-04-30T01:56:18.814Z,4.88
2023-04-30T01:58:47.215Z,7.13
2023-04-30T02:01:31.051Z,4.00
2023-04-30T02:03:58.869Z,9.23
2023-04-30T02:06:30.166Z,5.93
2023-04-30T02:11:32.324Z,4.65
2023-04-30T02:13:59.444Z,4.55
2023-04-30T02:16:26.655Z,6.43
2023-04-30T02:18:53.873Z,5.78
2023-04-30T02:21:21.207Z,6.80
2023-04-30T02:23:48.659Z,7.07
2023-04-30T02:26:15.804Z,5.50
2023-04-30T02:28:42.941Z,4.40
2023-04-30T02:31:10.224Z,3.55
2023-04-30T02:33:37.383Z,4.82
2023-04-30T02:36:04.621Z,4.90
2023-04-30T02:38:31.784Z,5.25
2023-04-30T02:40:58.898Z,5.63
2023-04-30T02:43:26.046Z,5.30
2023-04-30T02:45:53.434Z,6.07
2023-04-30T02:48:20.606Z,5.45
2023-04-30T02:50:47.690Z,6.80
2023-04-30T02:53:14.795Z,5.25
2023-04-30T02:55:41.907Z,6.63
2023-04-30T02:58:08.994Z,5.60
2023-04-30T03:00:36.108Z,4.93
2023-04-30T03:03:03.883Z,8.43
2023-04-30T03:05:31.205Z,5.35
2023-04-30T03:07:58.345Z,6.07
2023-04-30T03:10:25.461Z,5.30
2023-04-30T03:12:53.829Z,4.10
2023-04-30T03:15:21.066Z,4.00
2023-04-30T03:17:48.254Z,5.35
2023-04-30T03:20:15.417Z,6.45
2023-04-30T03:22:42.554Z,4.07
2023-04-30T03:25:10.070Z,5.63
2023-04-30T03:27:37.178Z,6.20
2023-04-30T03:30:04.718Z,7.00
2023-04-30T03:32:32.378Z,5.78
2023-04-30T03:34:59.515Z,4.80
2023-04-30T03:37:26.860Z,5.95
2023-04-30T03:39:54.176Z,5.43
2023-04-30T03:42:21.602Z,5.38
2023-04-30T03:44:48.694Z,5.00
2023-04-30T03:47:16.005Z,7.82
2023-04-30T03:49:43.088Z,5.78
2023-04-30T03:52:10.225Z,6.05
2023-04-30T03:54:37.331Z,4.32
2023-04-30T03:57:05.559Z,3.67
2023-04-30T03:59:33.078Z,5.10
2023-04-30T04:02:01.803Z,4.65
2023-04-30T04:04:29.570Z,5.22
2023-04-30T04:06:56.870Z,4.32
2023-04-30T04:09:23.985Z,7.22
2023-04-30T04:11:51.143Z,5.97
2023-04-30T04:14:18.278Z,6.95
2023-04-30T04:16:45.569Z,5.18
2023-04-30T04:19:15.741Z,6.95
2023-04-30T04:21:42.877Z,6.78
2023-04-30T04:24:10.444Z,4.88
2023-04-30T04:26:38.102Z,6.25
2023-04-30T04:29:05.333Z,4.57
2023-04-30T04:31:32.766Z,6.18
2023-04-30T04:34:00.441Z,4.95
2023-04-30T04:36:28.815Z,5.68
2023-04-30T04:38:57.618Z,5.90
2023-04-30T04:41:25.394Z,6.68
2023-04-30T04:43:52.905Z,5.53
2023-04-30T04:46:20.921Z,6.20
2023-04-30T04:48:48.143Z,5.95
2023-04-30T04:51:15.367Z,6.25
2023-04-30T04:53:42.433Z,4.13
2023-04-30T04:56:09.518Z,6.07
2023-04-30T04:58:36.824Z,4.28
2023-04-30T05:01:05.616Z,6.32
2023-04-30T05:03:33.184Z,5.53
2023-04-30T05:06:00.567Z,5.05
2023-04-30T05:08:27.702Z,5.35
2023-04-30T05:10:54.823Z,6.55
2023-04-30T05:13:22.112Z,6.18
2023-04-30T05:15:52.957Z,5.63
2023-04-30T05:18:20.769Z,4.20
2023-04-30T05:20:47.916Z,7.07
2023-04-30T05:23:15.064Z,5.30
2023-04-30T05:25:42.176Z,4.15
2023-04-30T05:28:09.311Z,6.22
2023-04-30T05:30:36.670Z,5.10
2023-04-30T05:33:03.825Z,4.22
2023-04-30T05:35:31.685Z,5.82
2023-04-30T05:37:58.877Z,5.45
2023-04-30T05:40:26.016Z,5.43
2023-04-30T05:42:53.150Z,4.50
2023-04-30T05:45:20.338Z,6.28
2023-04-30T05:47:47.485Z,5.95
2023-04-30T05:50:14.940Z,3.60
2023-04-30T05:52:42.025Z,4.13
2023-04-30T05:55:09.735Z,5.53
2023-04-30T05:57:36.947Z,4.15
2023-04-30T06:00:06.803Z,4.72
2023-04-30T06:02:34.074Z,4.60
2023-04-30T06:05:03.325Z,4.15
2023-04-30T06:07:30.827Z,5.80
2023-04-30T06:09:58.748Z,5.68
2023-04-30T06:12:25.930Z,4.63
2023-04-30T06:14:53.375Z,4.82
2023-04-30T06:17:20.732Z,4.65
2023-04-30T06:19:47.884Z,5.35
2023-04-30T06:22:14.997Z,4.45
2023-04-30T06:24:42.144Z,6.95
2023-04-30T06:27:09.282Z,3.78
2023-04-30T06:29:36.390Z,5.18
2023-04-30T06:32:03.522Z,3.35
2023-04-30T06:34:31.180Z,7.70
2023-04-30T06:36:58.278Z,5.53
2023-04-30T06:39:25.384Z,5.88
2023-04-30T06:41:52.513Z,4.97
2023-04-30T06:44:19.650Z,4.18
2023-04-30T06:46:46.735Z,3.83
2023-04-30T06:49:13.888Z,4.15
2023-04-30T06:51:42.667Z,5.20
2023-04-30T06:54:09.833Z,5.93
2023-04-30T06:56:37.282Z,4.18
2023-04-30T06:59:04.568Z,6.32
2023-04-30T07:01:31.768Z,4.05
2023-04-30T07:04:00.284Z,3.38
2023-04-30T07:06:27.441Z,5.22
2023-04-30T07:08:54.568Z,6.07
2023-04-30T07:11:21.768Z,7.80
2023-04-30T07:13:48.868Z,5.60
2023-04-30T07:16:17.178Z,4.82
2023-04-30T07:18:44.404Z,6.07
2023-04-30T07:21:11.544Z,5.90
2023-04-30T07:23:38.659Z,4.10
2023-04-30T07:26:05.902Z,4.20
2023-04-30T07:28:33.033Z,5.30
2023-04-30T07:31:00.689Z,6.28
2023-04-30T07:33:28.241Z,3.75
2023-04-30T07:35:56.644Z,3.58
2023-04-30T07:38:23.932Z,5.10
2023-04-30T07:40:51.058Z,4.70
2023-04-30T07:43:18.143Z,5.15
2023-04-30T07:45:45.242Z,3.85
2023-04-30T07:48:12.398Z,3.45
2023-04-30T07:50:39.572Z,6.88
2023-04-30T07:53:09.405Z,5.45
2023-04-30T07:55:36.595Z,4.93
2023-04-30T07:58:04.426Z,6.65
2023-04-30T08:00:31.601Z,3.97
2023-04-30T08:03:00.606Z,5.05
2023-04-30T08:05:28.021Z,8.07
2023-04-30T08:07:55.146Z,6.80
2023-04-30T08:10:22.388Z,3.72
2023-04-30T08:12:49.710Z,3.30
2023-04-30T08:15:16.859Z,8.23
2023-04-30T08:17:45.111Z,2.30
2023-04-30T08:20:12.383Z,5.35
2023-04-30T08:22:39.703Z,6.75
2023-04-30T08:25:07.157Z,3.65
2023-04-30T08:27:34.339Z,4.32
2023-04-30T08:30:01.449Z,4.22
2023-04-30T08:32:29.186Z,5.25
2023-04-30T08:34:56.579Z,3.65
2023-04-30T08:37:23.765Z,4.55
2023-04-30T08:39:51.070Z,5.78
2023-04-30T08:42:19.281Z,2.92
2023-04-30T08:44:47.153Z,3.88
2023-04-30T08:47:14.419Z,4.22
2023-04-30T08:49:41.978Z,8.02
2023-04-30T08:52:09.603Z,4.05
2023-04-30T08:54:36.894Z,3.38
2023-04-30T08:57:04.707Z,4.35
2023-04-30T08:59:31.867Z,4.22
2023-04-30T09:02:01.517Z,3.95
2023-04-30T09:04:29.236Z,4.25
2023-04-30T09:06:59.477Z,3.40
2023-04-30T09:09:38.249Z,3.40
2023-04-30T09:12:16.305Z,4.15
2023-04-30T09:15:02.360Z,3.70
2023-04-30T09:17:30.022Z,3.78
2023-04-30T09:20:10.727Z,6.65
2023-04-30T09:22:38.559Z,4.20
2023-04-30T09:25:06.228Z,3.83
2023-04-30T09:27:33.378Z,4.03
2023-04-30T09:30:01.140Z,6.55
2023-04-30T09:32:28.310Z,4.90
2023-04-30T09:34:56.193Z,5.78
2023-04-30T09:37:23.299Z,3.20
2023-04-30T09:39:55.228Z,4.80
2023-04-30T09:42:23.381Z,3.95
2023-04-30T09:44:50.861Z,2.95
2023-04-30T09:47:19.331Z,2.70
2023-04-30T09:49:52.524Z,2.97
2023-04-30T09:52:20.867Z,4.55
2023-04-30T09:54:48.232Z,3.85
2023-04-30T09:57:16.174Z,3.83
2023-04-30T09:59:47.335Z,5.38
2023-04-30T10:04:45.362Z,8.13
2023-04-30T10:07:23.025Z,3.45
2023-04-30T10:10:00.196Z,4.68
2023-04-30T10:12:30.837Z,6.28
2023-04-30T10:15:07.031Z,4.53
2023-04-30T10:17:37.595Z,4.88
2023-04-30T10:20:07.237Z,4.18
2023-04-30T10:22:35.973Z,4.15
2023-04-30T10:25:03.606Z,3.25
2023-04-30T10:27:31.346Z,5.93
2023-04-30T10:29:59.458Z,4.93
2023-04-30T10:32:32.131Z,5.20
2023-04-30T10:35:11.285Z,4.68
2023-04-30T10:37:46.801Z,7.45
2023-04-30T10:40:14.989Z,3.50
2023-04-30T10:42:49.410Z,3.55
2023-04-30T10:45:17.412Z,6.18
2023-04-30T10:47:48.021Z,2.85
2023-04-30T10:50:15.202Z,4.07
2023-04-30T10:52:42.325Z,4.20
2023-04-30T10:55:10.165Z,4.43
2023-04-30T10:57:44.050Z,2.22
2023-04-30T11:00:12.148Z,3.08
2023-04-30T11:02:40.599Z,4.45
2023-04-30T11:05:08.060Z,3.28
2023-04-30T11:07:36.144Z,3.58
2023-04-30T11:10:03.392Z,2.85
2023-04-30T11:12:30.645Z,5.43
2023-04-30T11:15:13.904Z,4.78
2023-04-30T11:17:41.297Z,3.92
2023-04-30T11:20:12.946Z,4.43
2023-04-30T11:22:40.086Z,4.15
2023-04-30T11:25:09.626Z,2.95
2023-04-30T11:27:37.803Z,4.13
2023-04-30T11:30:10.557Z,3.17
2023-04-30T11:32:38.470Z,3.00
2023-04-30T11:35:06.230Z,4.57
2023-04-30T11:37:40.509Z,5.85
2023-04-30T11:40:08.712Z,4.95
2023-04-30T11:42:36.138Z,3.17
2023-04-30T11:45:04.398Z,7.82
2023-04-30T11:47:40.569Z,4.03
2023-04-30T11:50:08.806Z,5.93
2023-04-30T11:52:36.291Z,3.17
2023-04-30T11:55:06.443Z,4.03
2023-04-30T11:57:40.891Z,3.47
2023-04-30T12:00:09.979Z,3.60
2023-04-30T12:02:37.282Z,4.03
2023-04-30T12:05:04.719Z,5.05
2023-04-30T12:07:32.126Z,5.55
2023-04-30T12:09:59.904Z,3.33
2023-04-30T12:12:27.839Z,4.35
2023-04-30T12:14:55.181Z,4.47
2023-04-30T12:17:35.694Z,4.50
2023-04-30T12:20:05.010Z,4.05
2023-04-30T12:22:32.321Z,3.97
2023-04-30T12:25:00.758Z,3.67
2023-04-30T12:27:27.902Z,4.75
2023-04-30T12:29:56.496Z,4.18
2023-04-30T12:32:24.041Z,3.33
2023-04-30T12:34:51.566Z,6.05
2023-04-30T12:37:18.696Z,3.33
2023-04-30T12:39:47.382Z,4.70
2023-04-30T12:42:19.991Z,3.83
2023-04-30T12:44:47.663Z,3.55
2023-04-30T12:47:15.572Z,4.15
2023-04-30T12:49:46.828Z,4.10
2023-04-30T12:52:15.530Z,6.20
2023-04-30T12:54:42.810Z,5.07
2023-04-30T12:57:10.939Z,2.88
2023-04-30T12:59:57.073Z,3.45
2023-04-30T13:02:25.468Z,5.95
2023-04-30T13:04:53.343Z,3.47
2023-04-30T13:07:21.116Z,4.78
2023-04-30T13:09:48.281Z,5.95
2023-04-30T13:12:15.384Z,5.88
2023-04-30T13:14:42.621Z,2.90
2023-04-30T13:17:12.339Z,5.32
2023-04-30T13:19:39.483Z,4.03
2023-04-30T13:22:06.617Z,2.75
2023-04-30T13:24:33.775Z,5.72
2023-04-30T13:27:02.656Z,4.30
2023-04-30T13:29:29.884Z,4.35
2023-04-30T13:31:57.133Z,4.65
2023-04-30T13:34:24.364Z,6.22
2023-04-30T13:36:53.329Z,7.00
2023-04-30T13:39:20.489Z,4.07
2023-04-30T13:41:49.144Z,4.18
2023-04-30T13:44:17.211Z,4.25
2023-04-30T13:46:44.392Z,5.40
2023-04-30T13:49:11.556Z,3.42
2023-04-30T13:51:38.767Z,5.47
2023-04-30T13:54:05.868Z,3.95
2023-04-30T13:56:33.027Z,6.57
2023-04-30T13:59:00.164Z,3.47
2023-04-30T14:01:27.451Z,4.90
2023-04-30T14:03:54.981Z,7.90
2023-04-30T14:06:22.385Z,6.35
2023-04-30T14:08:49.851Z,5.68
2023-04-30T14:11:16.948Z,3.35
2023-04-30T14:13:44.100Z,6.93
2023-04-30T14:16:11.385Z,3.22
2023-04-30T14:18:38.551Z,3.40
2023-04-30T14:21:06.297Z,5.18
2023-04-30T14:23:34.025Z,5.95
2023-04-30T14:26:01.150Z,3.88
2023-04-30T14:28:28.331Z,4.00
2023-04-30T14:30:55.497Z,4.28
2023-04-30T14:33:22.584Z,3.05
2023-04-30T14:35:49.828Z,3.72
2023-04-30T14:38:16.969Z,7.10
2023-04-30T14:40:44.909Z,3.92
2023-04-30T14:43:12.088Z,3.50
2023-04-30T14:45:40.187Z,3.70
2023-04-30T14:48:07.482Z,4.57
2023-04-30T14:50:34.684Z,6.38
2023-04-30T14:53:01.880Z,5.15
2023-04-30T14:55:29.019Z,3.15
2023-04-30T14:57:56.258Z,4.38
2023-04-30T15:00:23.420Z,3.90
2023-04-30T15:02:50.691Z,4.55
2023-04-30T15:05:17.933Z,4.03
2023-04-30T15:07:45.004Z,4.05
2023-04-30T15:10:12.249Z,3.85
2023-04-30T15:12:39.713Z,2.60
2023-04-30T15:15:07.929Z,3.97
2023-04-30T15:17:39.478Z,5.25
2023-04-30T15:20:07.719Z,5.65
2023-04-30T15:22:34.832Z,3.10
2023-04-30T15:25:02.420Z,4.15
2023-04-30T15:27:30.810Z,4.20
2023-04-30T15:29:58.989Z,3.20
2023-04-30T15:32:26.085Z,4.13
2023-04-30T15:34:53.221Z,3.47
2023-04-30T15:37:20.954Z,3.30
2023-04-30T15:39:52.116Z,4.15
2023-04-30T15:44:46.567Z,3.78
2023-04-30T15:47:13.677Z,4.40
2023-04-30T15:49:40.912Z,5.18
2023-04-30T15:52:07.974Z,3.65
2023-04-30T15:54:35.044Z,3.97
2023-04-30T15:57:04.297Z,3.30
2023-04-30T15:59:31.416Z,4.68
2023-04-30T16:01:58.543Z,5.22
2023-04-30T16:04:25.890Z,4.00
2023-04-30T16:06:53.725Z,4.47
2023-04-30T16:09:20.992Z,4.43
2023-04-30T16:11:48.451Z,5.97
2023-04-30T16:14:15.594Z,3.00
2023-04-30T16:16:42.820Z,4.15
2023-04-30T16:19:12.335Z,5.30
2023-04-30T16:21:39.549Z,5.70
2023-04-30T16:24:07.121Z,4.28
2023-04-30T16:26:34.938Z,3.33
2023-04-30T16:29:02.042Z,3.95
2023-04-30T16:31:29.276Z,5.50
2023-04-30T16:33:56.628Z,4.80
2023-04-30T16:36:23.773Z,5.43
2023-04-30T16:38:50.855Z,4.70
2023-04-30T16:41:18.321Z,2.80
2023-04-30T16:43:45.774Z,3.30
2023-04-30T16:46:12.930Z,5.93
2023-04-30T16:48:40.310Z,3.47
2023-04-30T16:51:08.914Z,5.07
2023-04-30T16:53:36.177Z,6.07
2023-04-30T16:56:03.371Z,3.58
2023-04-30T16:58:30.536Z,6.57
2023-04-30T17:00:57.692Z,6.22
2023-04-30T17:03:25.450Z,3.30
2023-04-30T17:05:53.427Z,3.85
2023-04-30T17:08:21.914Z,4.88
2023-04-30T17:10:49.273Z,4.45
2023-04-30T17:13:16.554Z,4.40
2023-04-30T17:15:43.803Z,6.57
2023-04-30T17:18:12.006Z,3.95
2023-04-30T17:20:39.297Z,8.35
2023-04-30T17:23:06.500Z,5.18
2023-04-30T17:25:33.750Z,4.53
2023-04-30T17:28:01.538Z,4.60
2023-04-30T17:30:29.174Z,5.35
2023-04-30T17:32:56.782Z,7.05
2023-04-30T17:35:24.016Z,5.75
2023-04-30T17:37:51.300Z,6.70
2023-04-30T17:40:18.557Z,8.65
2023-04-30T17:42:45.879Z,5.97
2023-04-30T17:45:12.969Z,7.78
2023-04-30T17:47:40.168Z,5.50
2023-04-30T17:50:08.785Z,7.07
2023-04-30T17:52:38.478Z,6.85
2023-04-30T17:55:09.048Z,7.13
2023-04-30T17:57:36.425Z,6.70
2023-04-30T18:00:04.698Z,6.25
2023-04-30T18:02:32.000Z,8.50
2023-04-30T18:04:59.104Z,7.88
2023-04-30T18:07:26.231Z,7.22
2023-04-30T18:09:53.708Z,7.50
2023-04-30T18:12:21.152Z,5.90
2023-04-30T18:14:48.288Z,8.90
2023-04-30T18:17:15.458Z,6.40
2023-04-30T18:19:44.528Z,6.70
2023-04-30T18:22:12.419Z,7.78
2023-04-30T18:24:40.157Z,7.82
2023-04-30T18:27:07.588Z,7.93
2023-04-30T18:29:35.395Z,7.65
2023-04-30T18:32:02.723Z,8.20
2023-04-30T18:34:29.874Z,7.13
2023-04-30T18:36:57.037Z,10.95
2023-04-30T18:39:24.206Z,8.20
2023-04-30T18:41:52.064Z,7.68
2023-04-30T18:44:19.972Z,6.88
2023-04-30T18:46:47.284Z,6.32
2023-04-30T18:49:14.407Z,7.15
2023-04-30T18:51:41.529Z,7.13
2023-04-30T18:54:08.798Z,9.25
2023-04-30T18:56:36.963Z,6.45
2023-04-30T18:59:04.296Z,9.05
2023-04-30T19:01:31.979Z,7.22
2023-04-30T19:03:59.361Z,7.18
2023-04-30T19:06:26.921Z,5.50
2023-04-30T19:08:54.990Z,7.07
2023-04-30T19:11:22.085Z,6.32
2023-04-30T19:13:49.196Z,6.50
2023-04-30T19:16:16.960Z,7.03
2023-04-30T19:18:44.213Z,7.88
2023-04-30T19:21:12.945Z,11.60
2023-04-30T19:23:40.157Z,11.73
2023-04-30T19:26:07.251Z,16.17
2023-04-30T19:28:34.348Z,14.13
2023-04-30T19:31:01.581Z,17.05
2023-04-30T19:33:29.910Z,18.30
2023-04-30T19:35:57.793Z,17.80
2023-04-30T19:38:25.009Z,14.60
2023-04-30T19:40:53.132Z,13.45
2023-04-30T19:43:20.637Z,13.70
2023-04-30T19:45:48.748Z,15.18
2023-04-30T19:48:16.357Z,13.48
2023-04-30T19:50:45.232Z,19.65
2023-04-30T19:53:12.702Z,18.67
2023-04-30T19:55:40.105Z,14.90
2023-04-30T19:58:07.522Z,18.00
2023-04-30T20:00:37.237Z,11.82
2023-04-30T20:03:05.421Z,12.82
2023-04-30T20:05:32.824Z,10.52
2023-04-30T20:08:00.223Z,9.52
2023-04-30T20:10:27.314Z,8.02
2023-04-30T20:12:54.585Z,7.30
2023-04-30T20:15:22.754Z,6.65
2023-04-30T20:17:51.520Z,7.03
2023-04-30T20:20:20.055Z,8.60
2023-04-30T20:22:47.958Z,5.38
2023-04-30T20:25:15.025Z,9.02
2023-04-30T20:27:42.152Z,6.18
2023-04-30T20:30:10.533Z,14.55
2023-04-30T20:32:39.116Z,12.85
2023-04-30T20:35:07.276Z,8.20
2023-04-30T20:37:37.752Z,9.85
2023-04-30T20:40:07.756Z,6.75
2023-04-30T20:42:34.967Z,8.20
2023-04-30T20:45:03.923Z,11.80
2023-04-30T20:47:32.706Z,15.80
2023-04-30T20:49:59.799Z,12.48
2023-04-30T20:52:26.908Z,14.27
2023-04-30T20:54:54.041Z,14.32
2023-04-30T20:57:21.181Z,13.93
2023-04-30T20:59:48.296Z,16.40
2023-04-30T21:02:15.634Z,20.70
2023-04-30T21:04:42.787Z,21.17
2023-04-30T21:07:10.319Z,21.38
2023-04-30T21:09:38.304Z,19.95
2023-04-30T21:12:05.550Z,17.83
2023-04-30T21:14:33.491Z,19.02
2023-04-30T21:17:00.903Z,15.07
2023-04-30T21:19:28.144Z,15.32
2023-04-30T21:21:55.323Z,13.02
2023-04-30T21:24:22.455Z,18.33
2023-04-30T21:26:49.550Z,16.00
2023-04-30T21:29:16.947Z,13.40
2023-04-30T21:31:44.250Z,17.90
2023-04-30T21:34:11.377Z,16.23
2023-04-30T21:36:38.643Z,15.15
2023-04-30T21:39:05.804Z,16.25
2023-04-30T21:41:32.953Z,15.82
2023-04-30T21:44:00.219Z,10.88
2023-04-30T21:46:27.368Z,16.25
2023-04-30T21:48:54.575Z,16.70
2023-04-30T21:51:22.284Z,17.42
2023-04-30T21:53:49.657Z,17.50
2023-04-30T21:56:16.837Z,19.67
2023-04-30T21:58:44.207Z,16.33
2023-04-30T22:01:11.618Z,19.23
2023-04-30T22:03:39.427Z,20.05
2023-04-30T22:06:06.892Z,21.23
2023-04-30T22:08:34.103Z,19.33
2023-04-30T22:11:01.758Z,21.00
2023-04-30T22:13:29.103Z,20.23
2023-04-30T22:15:56.288Z,22.40
2023-04-30T22:18:24.602Z,20.23
2023-04-30T22:20:52.312Z,16.42
2023-04-30T22:23:21.748Z,16.95
2023-04-30T22:25:48.908Z,22.75
2023-04-30T22:28:17.961Z,24.30
2023-04-30T22:30:45.129Z,20.98
2023-04-30T22:33:13.534Z,20.73
2023-04-30T22:35:40.953Z,19.55
2023-04-30T22:38:08.325Z,25.50
2023-04-30T22:40:39.505Z,26.23
2023-04-30T22:45:38.135Z,28.65
2023-04-30T22:48:05.583Z,28.73
2023-04-30T22:50:32.791Z,32.42
2023-04-30T22:53:00.153Z,37.53
2023-04-30T22:55:27.674Z,41.83
2023-04-30T22:57:54.895Z,38.20
2023-04-30T23:00:24.071Z,43.47
2023-04-30T23:02:51.261Z,38.55
2023-04-30T23:05:18.493Z,39.63
2023-04-30T23:07:49.506Z,32.38
2023-04-30T23:10:16.975Z,37.25
2023-04-30T23:12:44.331Z,38.67
2023-04-30T23:15:12.215Z,34.45
2023-04-30T23:17:39.587Z,34.15
2023-04-30T23:20:07.870Z,36.28
2023-04-30T23:22:34.946Z,29.73
2023-04-30T23:25:02.069Z,37.97
2023-04-30T23:27:30.048Z,34.80
2023-04-30T23:29:57.387Z,28.58
2023-04-30T23:32:24.911Z,32.10
2023-04-30T23:34:52.252Z,31.15
2023-04-30T23:37:19.345Z,32.35
2023-04-30T23:39:46.421Z,30.27
2023-04-30T23:42:13.580Z,33.20
2023-04-30T23:44:40.725Z,34.70
2023-04-30T23:47:07.883Z,29.88
2023-04-30T23:49:35.023Z,33.10
2023-04-30T23:52:02.129Z,34.92
2023-04-30T23:54:30.057Z,32.25
2023-04-30T23:56:57.526Z,30.67
2023-04-30T23:59:25.772Z,29.60
